sensor_id;sensor_type;location;lat;lon;timestamp;temperature;humidity
15133;DHT22;7667;51.232;17.110;2024-02-21T01:57:32;5.10;99.90
15133;DHT22;7667;51.232;17.110;2024-02-21T01:59:59;4.90;99.90
15133;DHT22;7667;51.232;17.110;2024-02-21T02:02:27;4.90;99.90
15133;DHT22;7667;51.232;17.110;2024-02-21T02:04:55;4.90;99.90
15133;DHT22;7667;51.232;17.110;2024-02-21T02:07:23;4.90;99.90
15133;DHT22;7667;51.232;17.110;2024-02-21T02:09:51;4.80;99.90
15133;DHT22;7667;51.232;17.110;2024-02-21T02:12:19;4.90;99.90
15133;DHT22;7667;51.232;17.110;2024-02-21T02:14:58;4.80;99.90
15133;DHT22;7667;51.232;17.110;2024-02-21T02:17:32;4.80;99.90
15133;DHT22;7667;51.232;17.110;2024-02-21T02:19:59;4.80;99.90
15133;DHT22;7667;51.232;17.110;2024-02-21T02:22:32;4.80;99.90
15133;DHT22;7667;51.232;17.110;2024-02-21T02:25:02;4.90;99.90
15133;DHT22;7667;51.232;17.110;2024-02-21T02:27:30;4.80;99.90
15133;DHT22;7667;51.232;17.110;2024-02-21T02:29:58;4.80;99.90
15133;DHT22;7667;51.232;17.110;2024-02-21T02:32:25;4.80;99.90
15133;DHT22;7667;51.232;17.110;2024-02-21T02:34:53;4.80;99.90
15133;DHT22;7667;51.232;17.110;2024-02-21T02:37:21;4.80;99.90
15133;DHT22;7667;51.232;17.110;2024-02-21T02:39:48;4.70;99.90
15133;DHT22;7667;51.232;17.110;2024-02-21T02:42:16;4.70;99.90
15133;DHT22;7667;51.232;17.110;2024-02-21T02:44:43;4.60;99.90
15133;DHT22;7667;51.232;17.110;2024-02-21T02:47:11;4.60;99.90
15133;DHT22;7667;51.232;17.110;2024-02-21T02:49:39;4.60;99.90
15133;DHT22;7667;51.232;17.110;2024-02-21T02:52:06;4.60;99.90
15133;DHT22;7667;51.232;17.110;2024-02-21T02:54:34;4.50;99.90
15133;DHT22;7667;51.232;17.110;2024-02-21T02:57:01;4.50;99.90
15133;DHT22;7667;51.232;17.110;2024-02-21T02:59:30;4.40;99.90
15133;DHT22;7667;51.232;17.110;2024-02-21T03:01:58;4.30;99.90
15133;DHT22;7667;51.232;17.110;2024-02-21T03:04:26;4.30;99.90
15133;DHT22;7667;51.232;17.110;2024-02-21T03:06:53;4.30;99.90
15133;DHT22;7667;51.232;17.110;2024-02-21T03:09:21;4.50;99.90
15133;DHT22;7667;51.232;17.110;2024-02-21T03:11:49;4.50;99.90
15133;DHT22;7667;51.232;17.110;2024-02-21T03:14:16;4.50;99.90
15133;DHT22;7667;51.232;17.110;2024-02-21T03:16:44;4.50;99.90
15133;DHT22;7667;51.232;17.110;2024-02-21T03:19:12;4.40;99.90
15133;DHT22;7667;51.232;17.110;2024-02-21T03:21:39;4.40;99.90
15133;DHT22;7667;51.232;17.110;2024-02-21T03:24:07;4.50;99.90
15133;DHT22;7667;51.232;17.110;2024-02-21T03:26:35;4.50;99.90
15133;DHT22;7667;51.232;17.110;2024-02-21T03:29:03;4.50;99.90
15133;DHT22;7667;51.232;17.110;2024-02-21T03:31:31;4.50;99.90
15133;DHT22;7667;51.232;17.110;2024-02-21T03:33:59;4.50;99.90
15133;DHT22;7667;51.232;17.110;2024-02-21T03:36:26;4.60;99.90
15133;DHT22;7667;51.232;17.110;2024-02-21T03:38:54;4.60;99.90
15133;DHT22;7667;51.232;17.110;2024-02-21T03:41:22;4.60;99.90
15133;DHT22;7667;51.232;17.110;2024-02-21T03:43:50;4.60;99.90
15133;DHT22;7667;51.232;17.110;2024-02-21T03:46:18;4.60;99.90
15133;DHT22;7667;51.232;17.110;2024-02-21T03:48:45;4.60;99.90
15133;DHT22;7667;51.232;17.110;2024-02-21T03:51:13;4.60;99.90
15133;DHT22;7667;51.232;17.110;2024-02-21T03:53:42;4.60;99.90
15133;DHT22;7667;51.232;17.110;2024-02-21T03:56:09;4.60;99.90
15133;DHT22;7667;51.232;17.110;2024-02-21T03:58:37;4.50;99.90
15133;DHT22;7667;51.232;17.110;2024-02-21T04:01:05;4.50;99.90
15133;DHT22;7667;51.232;17.110;2024-02-21T04:03:32;4.50;99.90
15133;DHT22;7667;51.232;17.110;2024-02-21T04:06:00;4.50;99.90
15133;DHT22;7667;51.232;17.110;2024-02-21T04:08:27;4.50;99.90
15133;DHT22;7667;51.232;17.110;2024-02-21T04:10:55;4.50;99.90
15133;DHT22;7667;51.232;17.110;2024-02-21T04:13:23;4.50;99.90
15133;DHT22;7667;51.232;17.110;2024-02-21T04:15:50;4.50;99.90
15133;DHT22;7667;51.232;17.110;2024-02-21T04:18:18;4.50;99.90
15133;DHT22;7667;51.232;17.110;2024-02-21T04:20:47;4.50;99.90
15133;DHT22;7667;51.232;17.110;2024-02-21T04:23:14;4.50;99.90
15133;DHT22;7667;51.232;17.110;2024-02-21T04:25:42;4.40;99.90
15133;DHT22;7667;51.232;17.110;2024-02-21T04:28:10;4.40;99.90
15133;DHT22;7667;51.232;17.110;2024-02-21T04:30:37;4.30;99.90
15133;DHT22;7667;51.232;17.110;2024-02-21T04:33:05;4.30;99.90
15133;DHT22;7667;51.232;17.110;2024-02-21T04:35:32;4.30;99.90
15133;DHT22;7667;51.232;17.110;2024-02-21T04:38:00;4.30;99.90
15133;DHT22;7667;51.232;17.110;2024-02-21T04:40:28;4.30;99.90
15133;DHT22;7667;51.232;17.110;2024-02-21T04:42:56;4.40;99.90
15133;DHT22;7667;51.232;17.110;2024-02-21T04:45:24;4.40;99.90
15133;DHT22;7667;51.232;17.110;2024-02-21T04:47:52;4.50;99.90
15133;DHT22;7667;51.232;17.110;2024-02-21T04:50:19;4.50;99.90
15133;DHT22;7667;51.232;17.110;2024-02-21T04:52:47;4.50;99.90
15133;DHT22;7667;51.232;17.110;2024-02-21T04:55:16;4.50;99.90
15133;DHT22;7667;51.232;17.110;2024-02-21T04:57:43;4.50;99.90
15133;DHT22;7667;51.232;17.110;2024-02-21T05:00:11;4.50;99.90
15133;DHT22;7667;51.232;17.110;2024-02-21T05:02:39;4.50;99.90
15133;DHT22;7667;51.232;17.110;2024-02-21T05:05:07;4.50;99.90
15133;DHT22;7667;51.232;17.110;2024-02-21T05:07:36;4.50;99.90
15133;DHT22;7667;51.232;17.110;2024-02-21T05:10:04;4.60;99.90
15133;DHT22;7667;51.232;17.110;2024-02-21T05:12:32;4.50;99.90
15133;DHT22;7667;51.232;17.110;2024-02-21T05:14:59;4.50;99.90
15133;DHT22;7667;51.232;17.110;2024-02-21T05:17:27;4.50;99.90
15133;DHT22;7667;51.232;17.110;2024-02-21T05:19:54;4.50;99.90
15133;DHT22;7667;51.232;17.110;2024-02-21T05:22:22;4.50;99.90
15133;DHT22;7667;51.232;17.110;2024-02-21T05:24:50;4.50;99.90
15133;DHT22;7667;51.232;17.110;2024-02-21T05:27:17;4.40;99.90
15133;DHT22;7667;51.232;17.110;2024-02-21T05:29:45;4.40;99.90
15133;DHT22;7667;51.232;17.110;2024-02-21T05:32:13;4.40;99.90
15133;DHT22;7667;51.232;17.110;2024-02-21T05:34:41;4.40;99.90
15133;DHT22;7667;51.232;17.110;2024-02-21T05:37:08;4.40;99.90
15133;DHT22;7667;51.232;17.110;2024-02-21T05:39:36;4.50;99.90
15133;DHT22;7667;51.232;17.110;2024-02-21T05:42:04;4.50;99.90
15133;DHT22;7667;51.232;17.110;2024-02-21T05:44:31;4.50;99.90
15133;DHT22;7667;51.232;17.110;2024-02-21T05:46:59;4.50;99.90
15133;DHT22;7667;51.232;17.110;2024-02-21T05:49:27;4.50;99.90
15133;DHT22;7667;51.232;17.110;2024-02-21T05:51:54;4.50;99.90
15133;DHT22;7667;51.232;17.110;2024-02-21T05:54:22;4.50;99.90
15133;DHT22;7667;51.232;17.110;2024-02-21T05:56:49;4.70;99.90
15133;DHT22;7667;51.232;17.110;2024-02-21T05:59:17;4.70;99.90
15133;DHT22;7667;51.232;17.110;2024-02-21T06:01:44;4.60;99.90
15133;DHT22;7667;51.232;17.110;2024-02-21T06:04:12;4.60;99.90
15133;DHT22;7667;51.232;17.110;2024-02-21T06:06:40;4.60;99.90
15133;DHT22;7667;51.232;17.110;2024-02-21T06:09:08;4.60;99.90
15133;DHT22;7667;51.232;17.110;2024-02-21T06:11:36;4.50;99.90
15133;DHT22;7667;51.232;17.110;2024-02-21T06:14:05;4.50;99.90
15133;DHT22;7667;51.232;17.110;2024-02-21T06:16:33;4.50;99.90
15133;DHT22;7667;51.232;17.110;2024-02-21T06:19:00;4.60;99.90
15133;DHT22;7667;51.232;17.110;2024-02-21T06:21:30;4.60;99.90
15133;DHT22;7667;51.232;17.110;2024-02-21T06:23:57;4.60;99.90
15133;DHT22;7667;51.232;17.110;2024-02-21T06:26:25;4.60;99.90
15133;DHT22;7667;51.232;17.110;2024-02-21T06:28:53;4.70;99.90
15133;DHT22;7667;51.232;17.110;2024-02-21T06:31:20;4.80;99.90
15133;DHT22;7667;51.232;17.110;2024-02-21T06:33:48;4.80;99.90
15133;DHT22;7667;51.232;17.110;2024-02-21T06:36:16;4.80;99.90
15133;DHT22;7667;51.232;17.110;2024-02-21T06:38:43;4.90;99.90
15133;DHT22;7667;51.232;17.110;2024-02-21T06:41:18;4.90;99.90
15133;DHT22;7667;51.232;17.110;2024-02-21T06:43:46;4.90;99.90
15133;DHT22;7667;51.232;17.110;2024-02-21T06:46:25;5.00;99.90
15133;DHT22;7667;51.232;17.110;2024-02-21T06:48:54;5.00;99.90
15133;DHT22;7667;51.232;17.110;2024-02-21T06:51:24;5.00;99.90
15133;DHT22;7667;51.232;17.110;2024-02-21T06:53:52;5.00;99.90
15133;DHT22;7667;51.232;17.110;2024-02-21T06:56:22;5.10;99.90
15133;DHT22;7667;51.232;17.110;2024-02-21T06:58:54;5.10;99.90
15133;DHT22;7667;51.232;17.110;2024-02-21T07:01:23;5.20;99.90
15133;DHT22;7667;51.232;17.110;2024-02-21T07:03:51;5.30;99.90
15133;DHT22;7667;51.232;17.110;2024-02-21T07:06:19;5.30;99.90
15133;DHT22;7667;51.232;17.110;2024-02-21T07:08:46;5.40;99.90
15133;DHT22;7667;51.232;17.110;2024-02-21T07:11:14;5.50;99.90
15133;DHT22;7667;51.232;17.110;2024-02-21T07:13:42;5.50;99.90
15133;DHT22;7667;51.232;17.110;2024-02-21T07:16:09;5.60;99.90
15133;DHT22;7667;51.232;17.110;2024-02-21T07:18:37;5.70;99.90
15133;DHT22;7667;51.232;17.110;2024-02-21T07:21:05;5.80;99.90
15133;DHT22;7667;51.232;17.110;2024-02-21T07:23:32;5.80;99.90
15133;DHT22;7667;51.232;17.110;2024-02-21T07:26:00;5.70;99.90
15133;DHT22;7667;51.232;17.110;2024-02-21T07:28:28;5.70;99.90
15133;DHT22;7667;51.232;17.110;2024-02-21T07:30:55;5.70;99.90
15133;DHT22;7667;51.232;17.110;2024-02-21T07:33:23;5.70;99.90
15133;DHT22;7667;51.232;17.110;2024-02-21T07:35:51;5.80;99.90
15133;DHT22;7667;51.232;17.110;2024-02-21T07:38:18;5.80;99.90
15133;DHT22;7667;51.232;17.110;2024-02-21T07:40:47;5.80;99.90
15133;DHT22;7667;51.232;17.110;2024-02-21T07:43:14;5.80;99.90
15133;DHT22;7667;51.232;17.110;2024-02-21T07:45:42;5.80;99.90
15133;DHT22;7667;51.232;17.110;2024-02-21T07:48:09;5.80;99.90
15133;DHT22;7667;51.232;17.110;2024-02-21T07:50:38;5.90;99.90
15133;DHT22;7667;51.232;17.110;2024-02-21T07:53:05;5.90;99.90
15133;DHT22;7667;51.232;17.110;2024-02-21T07:55:33;6.00;99.90
15133;DHT22;7667;51.232;17.110;2024-02-21T07:58:00;6.00;99.90
15133;DHT22;7667;51.232;17.110;2024-02-21T08:00:28;6.10;99.90
15133;DHT22;7667;51.232;17.110;2024-02-21T08:02:57;6.10;99.90
15133;DHT22;7667;51.232;17.110;2024-02-21T08:05:24;6.10;99.90
15133;DHT22;7667;51.232;17.110;2024-02-21T08:07:52;6.10;99.90
15133;DHT22;7667;51.232;17.110;2024-02-21T08:10:24;6.10;99.90
15133;DHT22;7667;51.232;17.110;2024-02-21T08:12:52;6.10;99.90
15133;DHT22;7667;51.232;17.110;2024-02-21T08:15:19;6.10;99.90
15133;DHT22;7667;51.232;17.110;2024-02-21T08:17:51;6.10;99.90
15133;DHT22;7667;51.232;17.110;2024-02-21T08:20:19;6.10;99.90
15133;DHT22;7667;51.232;17.110;2024-02-21T08:22:47;6.10;99.90
15133;DHT22;7667;51.232;17.110;2024-02-21T08:25:14;6.20;99.90
15133;DHT22;7667;51.232;17.110;2024-02-21T08:27:42;6.20;99.90
15133;DHT22;7667;51.232;17.110;2024-02-21T08:30:10;6.20;99.90
15133;DHT22;7667;51.232;17.110;2024-02-21T08:32:38;6.20;99.90
15133;DHT22;7667;51.232;17.110;2024-02-21T08:35:07;6.30;99.90
15133;DHT22;7667;51.232;17.110;2024-02-21T08:37:35;6.40;99.90
15133;DHT22;7667;51.232;17.110;2024-02-21T08:40:03;6.40;99.90
15133;DHT22;7667;51.232;17.110;2024-02-21T08:42:38;6.50;99.90
15133;DHT22;7667;51.232;17.110;2024-02-21T08:45:06;6.60;99.90
15133;DHT22;7667;51.232;17.110;2024-02-21T08:47:34;6.60;99.90
15133;DHT22;7667;51.232;17.110;2024-02-21T08:50:05;6.60;99.90
15133;DHT22;7667;51.232;17.110;2024-02-21T08:52:45;6.70;99.90
15133;DHT22;7667;51.232;17.110;2024-02-21T08:55:13;6.70;99.90
15133;DHT22;7667;51.232;17.110;2024-02-21T08:57:40;6.70;99.90
15133;DHT22;7667;51.232;17.110;2024-02-21T09:00:08;6.70;99.90
15133;DHT22;7667;51.232;17.110;2024-02-21T09:02:40;6.60;99.90
15133;DHT22;7667;51.232;17.110;2024-02-21T09:05:11;6.70;99.90
15133;DHT22;7667;51.232;17.110;2024-02-21T09:07:39;6.60;99.90
15133;DHT22;7667;51.232;17.110;2024-02-21T09:10:07;6.60;99.90
15133;DHT22;7667;51.232;17.110;2024-02-21T09:12:35;6.60;99.90
15133;DHT22;7667;51.232;17.110;2024-02-21T09:15:03;6.60;99.90
15133;DHT22;7667;51.232;17.110;2024-02-21T09:17:31;6.60;99.90
15133;DHT22;7667;51.232;17.110;2024-02-21T09:19:59;6.60;99.90
15133;DHT22;7667;51.232;17.110;2024-02-21T09:22:31;6.60;99.90
15133;DHT22;7667;51.232;17.110;2024-02-21T09:25:02;6.70;99.90
15133;DHT22;7667;51.232;17.110;2024-02-21T09:27:30;6.70;99.90
15133;DHT22;7667;51.232;17.110;2024-02-21T09:29:58;6.80;99.90
15133;DHT22;7667;51.232;17.110;2024-02-21T09:32:27;6.80;99.90
15133;DHT22;7667;51.232;17.110;2024-02-21T09:34:55;6.80;99.90
15133;DHT22;7667;51.232;17.110;2024-02-21T09:37:27;6.90;99.90
15133;DHT22;7667;51.232;17.110;2024-02-21T09:39:55;6.90;99.90
15133;DHT22;7667;51.232;17.110;2024-02-21T09:42:30;6.90;99.90
15133;DHT22;7667;51.232;17.110;2024-02-21T09:47:55;7.20;99.90
15133;DHT22;7667;51.232;17.110;2024-02-21T09:50:44;7.20;99.90
15133;DHT22;7667;51.232;17.110;2024-02-21T09:53:13;7.30;99.90
15133;DHT22;7667;51.232;17.110;2024-02-21T09:55:42;7.20;99.90
15133;DHT22;7667;51.232;17.110;2024-02-21T09:58:10;7.20;99.90
15133;DHT22;7667;51.232;17.110;2024-02-21T10:00:39;7.20;99.90
15133;DHT22;7667;51.232;17.110;2024-02-21T10:03:07;7.20;99.90
15133;DHT22;7667;51.232;17.110;2024-02-21T10:05:37;7.20;99.90
15133;DHT22;7667;51.232;17.110;2024-02-21T10:08:06;7.20;99.90
15133;DHT22;7667;51.232;17.110;2024-02-21T10:10:43;7.20;99.90
15133;DHT22;7667;51.232;17.110;2024-02-21T10:13:24;7.20;99.90
15133;DHT22;7667;51.232;17.110;2024-02-21T10:16:07;7.30;99.90
15133;DHT22;7667;51.232;17.110;2024-02-21T10:18:35;7.30;99.90
15133;DHT22;7667;51.232;17.110;2024-02-21T10:21:07;7.30;99.90
15133;DHT22;7667;51.232;17.110;2024-02-21T10:23:45;7.20;99.90
15133;DHT22;7667;51.232;17.110;2024-02-21T10:26:18;7.20;99.90
15133;DHT22;7667;51.232;17.110;2024-02-21T10:28:49;7.30;99.90
15133;DHT22;7667;51.232;17.110;2024-02-21T10:31:29;7.30;99.90
15133;DHT22;7667;51.232;17.110;2024-02-21T10:33:58;7.40;99.90
15133;DHT22;7667;51.232;17.110;2024-02-21T10:36:33;7.40;99.90
15133;DHT22;7667;51.232;17.110;2024-02-21T10:39:01;7.30;99.90
15133;DHT22;7667;51.232;17.110;2024-02-21T10:41:30;7.30;99.90
15133;DHT22;7667;51.232;17.110;2024-02-21T10:44:02;7.30;99.90
15133;DHT22;7667;51.232;17.110;2024-02-21T10:46:33;7.30;99.90
15133;DHT22;7667;51.232;17.110;2024-02-21T10:49:06;7.30;99.90
15133;DHT22;7667;51.232;17.110;2024-02-21T10:51:42;7.30;99.90
15133;DHT22;7667;51.232;17.110;2024-02-21T10:56:58;7.40;99.90
15133;DHT22;7667;51.232;17.110;2024-02-21T10:59:28;7.30;99.90
15133;DHT22;7667;51.232;17.110;2024-02-21T11:01:57;7.30;99.90
15133;DHT22;7667;51.232;17.110;2024-02-21T11:04:26;7.40;99.90
15133;DHT22;7667;51.232;17.110;2024-02-21T11:06:54;7.40;99.90
15133;DHT22;7667;51.232;17.110;2024-02-21T11:09:32;7.40;99.90
15133;DHT22;7667;51.232;17.110;2024-02-21T11:12:05;7.50;99.90
15133;DHT22;7667;51.232;17.110;2024-02-21T11:14:34;7.50;99.90
15133;DHT22;7667;51.232;17.110;2024-02-21T11:17:17;7.50;99.90
15133;DHT22;7667;51.232;17.110;2024-02-21T11:19:45;7.50;99.90
15133;DHT22;7667;51.232;17.110;2024-02-21T11:22:18;7.40;99.90
15133;DHT22;7667;51.232;17.110;2024-02-21T11:24:47;7.50;99.90
15133;DHT22;7667;51.232;17.110;2024-02-21T11:27:16;7.50;99.90
15133;DHT22;7667;51.232;17.110;2024-02-21T11:29:57;7.60;99.90
15133;DHT22;7667;51.232;17.110;2024-02-21T11:32:26;7.70;99.90
15133;DHT22;7667;51.232;17.110;2024-02-21T11:35:02;7.80;99.90
15133;DHT22;7667;51.232;17.110;2024-02-21T11:37:36;7.90;99.90
15133;DHT22;7667;51.232;17.110;2024-02-21T11:40:07;8.00;99.90
15133;DHT22;7667;51.232;17.110;2024-02-21T11:42:39;8.10;99.90
15133;DHT22;7667;51.232;17.110;2024-02-21T11:45:07;8.20;99.90
15133;DHT22;7667;51.232;17.110;2024-02-21T11:47:38;8.10;99.90
15133;DHT22;7667;51.232;17.110;2024-02-21T11:50:11;8.30;99.90
15133;DHT22;7667;51.232;17.110;2024-02-21T11:52:42;8.50;99.90
15133;DHT22;7667;51.232;17.110;2024-02-21T11:55:09;8.30;99.90
15133;DHT22;7667;51.232;17.110;2024-02-21T11:57:38;8.50;99.90
15133;DHT22;7667;51.232;17.110;2024-02-21T12:00:18;8.30;99.90
15133;DHT22;7667;51.232;17.110;2024-02-21T12:02:51;8.20;99.90
15133;DHT22;7667;51.232;17.110;2024-02-21T12:05:19;8.30;99.90
15133;DHT22;7667;51.232;17.110;2024-02-21T12:07:48;8.30;99.90
15133;DHT22;7667;51.232;17.110;2024-02-21T12:10:15;8.20;99.90
15133;DHT22;7667;51.232;17.110;2024-02-21T12:12:43;8.40;99.90
15133;DHT22;7667;51.232;17.110;2024-02-21T12:15:11;8.30;99.90
15133;DHT22;7667;51.232;17.110;2024-02-21T12:17:42;8.30;99.90
15133;DHT22;7667;51.232;17.110;2024-02-21T12:20:10;8.30;99.90
15133;DHT22;7667;51.232;17.110;2024-02-21T12:22:44;8.30;99.90
15133;DHT22;7667;51.232;17.110;2024-02-21T12:25:21;8.20;99.90
15133;DHT22;7667;51.232;17.110;2024-02-21T12:27:54;8.30;99.90
15133;DHT22;7667;51.232;17.110;2024-02-21T12:30:23;8.30;99.90
15133;DHT22;7667;51.232;17.110;2024-02-21T12:32:51;8.30;99.90
15133;DHT22;7667;51.232;17.110;2024-02-21T12:35:18;8.30;99.90
15133;DHT22;7667;51.232;17.110;2024-02-21T12:37:46;8.30;99.90
15133;DHT22;7667;51.232;17.110;2024-02-21T12:40:14;8.30;99.90
15133;DHT22;7667;51.232;17.110;2024-02-21T12:42:42;8.40;99.90
15133;DHT22;7667;51.232;17.110;2024-02-21T12:45:10;8.40;99.90
15133;DHT22;7667;51.232;17.110;2024-02-21T12:47:38;8.40;99.90
15133;DHT22;7667;51.232;17.110;2024-02-21T12:50:07;8.40;99.90
15133;DHT22;7667;51.232;17.110;2024-02-21T12:52:35;8.40;99.90
15133;DHT22;7667;51.232;17.110;2024-02-21T12:55:03;8.40;99.90
15133;DHT22;7667;51.232;17.110;2024-02-21T12:57:31;8.30;99.90
15133;DHT22;7667;51.232;17.110;2024-02-21T12:59:59;8.30;99.90
15133;DHT22;7667;51.232;17.110;2024-02-21T13:02:27;8.30;99.90
15133;DHT22;7667;51.232;17.110;2024-02-21T13:04:54;8.30;99.90
15133;DHT22;7667;51.232;17.110;2024-02-21T13:07:23;8.30;99.90
15133;DHT22;7667;51.232;17.110;2024-02-21T13:09:50;8.30;99.90
15133;DHT22;7667;51.232;17.110;2024-02-21T13:12:18;8.30;99.90
15133;DHT22;7667;51.232;17.110;2024-02-21T13:14:46;8.30;99.90
15133;DHT22;7667;51.232;17.110;2024-02-21T13:17:13;8.30;99.90
15133;DHT22;7667;51.232;17.110;2024-02-21T13:19:42;8.30;99.90
15133;DHT22;7667;51.232;17.110;2024-02-21T13:22:10;8.40;99.90
15133;DHT22;7667;51.232;17.110;2024-02-21T13:24:38;8.30;99.90
15133;DHT22;7667;51.232;17.110;2024-02-21T13:27:06;8.30;99.90
15133;DHT22;7667;51.232;17.110;2024-02-21T13:29:33;8.40;99.90
15133;DHT22;7667;51.232;17.110;2024-02-21T13:32:01;8.40;99.90
15133;DHT22;7667;51.232;17.110;2024-02-21T13:34:29;8.50;99.90
15133;DHT22;7667;51.232;17.110;2024-02-21T13:36:57;8.50;99.90
15133;DHT22;7667;51.232;17.110;2024-02-21T13:39:26;8.60;99.90
15133;DHT22;7667;51.232;17.110;2024-02-21T13:41:54;8.60;99.90
15133;DHT22;7667;51.232;17.110;2024-02-21T13:44:21;8.70;99.90
15133;DHT22;7667;51.232;17.110;2024-02-21T13:46:49;8.70;99.90
15133;DHT22;7667;51.232;17.110;2024-02-21T13:49:17;8.90;99.90
15133;DHT22;7667;51.232;17.110;2024-02-21T13:51:44;8.80;99.90
15133;DHT22;7667;51.232;17.110;2024-02-21T13:54:12;8.80;99.90
15133;DHT22;7667;51.232;17.110;2024-02-21T13:56:44;8.90;99.90
15133;DHT22;7667;51.232;17.110;2024-02-21T13:59:12;8.90;99.90
15133;DHT22;7667;51.232;17.110;2024-02-21T14:01:43;8.90;99.90
15133;DHT22;7667;51.232;17.110;2024-02-21T14:04:11;9.00;99.90
15133;DHT22;7667;51.232;17.110;2024-02-21T14:06:39;9.00;99.90
15133;DHT22;7667;51.232;17.110;2024-02-21T14:09:11;9.10;99.90
15133;DHT22;7667;51.232;17.110;2024-02-21T14:11:39;9.10;99.90
15133;DHT22;7667;51.232;17.110;2024-02-21T14:14:09;9.20;99.90
15133;DHT22;7667;51.232;17.110;2024-02-21T14:16:36;9.10;99.90
15133;DHT22;7667;51.232;17.110;2024-02-21T14:19:04;9.20;99.90
15133;DHT22;7667;51.232;17.110;2024-02-21T14:21:32;9.30;99.90
15133;DHT22;7667;51.232;17.110;2024-02-21T14:23:59;9.20;99.90
15133;DHT22;7667;51.232;17.110;2024-02-21T14:26:30;9.20;99.90
15133;DHT22;7667;51.232;17.110;2024-02-21T14:28:58;9.20;99.90
15133;DHT22;7667;51.232;17.110;2024-02-21T14:31:26;9.10;99.90
15133;DHT22;7667;51.232;17.110;2024-02-21T14:33:54;9.10;99.90
15133;DHT22;7667;51.232;17.110;2024-02-21T14:36:21;9.00;99.90
15133;DHT22;7667;51.232;17.110;2024-02-21T14:38:51;9.00;99.90
15133;DHT22;7667;51.232;17.110;2024-02-21T14:41:18;9.00;99.90
15133;DHT22;7667;51.232;17.110;2024-02-21T14:43:47;9.10;99.90
15133;DHT22;7667;51.232;17.110;2024-02-21T14:46:14;9.20;99.90
15133;DHT22;7667;51.232;17.110;2024-02-21T14:48:42;9.50;99.90
15133;DHT22;7667;51.232;17.110;2024-02-21T14:51:10;9.40;99.90
15133;DHT22;7667;51.232;17.110;2024-02-21T14:53:37;9.30;99.90
15133;DHT22;7667;51.232;17.110;2024-02-21T14:56:13;9.10;99.90
15133;DHT22;7667;51.232;17.110;2024-02-21T14:58:42;9.00;99.90
15133;DHT22;7667;51.232;17.110;2024-02-21T15:01:09;8.90;99.90
15133;DHT22;7667;51.232;17.110;2024-02-21T15:03:40;9.00;99.90
15133;DHT22;7667;51.232;17.110;2024-02-21T15:06:10;9.00;99.90
15133;DHT22;7667;51.232;17.110;2024-02-21T15:08:39;9.00;99.90
15133;DHT22;7667;51.232;17.110;2024-02-21T15:11:06;9.00;99.90
15133;DHT22;7667;51.232;17.110;2024-02-21T15:13:35;9.00;99.90
15133;DHT22;7667;51.232;17.110;2024-02-21T15:16:04;9.00;99.90
15133;DHT22;7667;51.232;17.110;2024-02-21T15:18:32;9.00;99.90
15133;DHT22;7667;51.232;17.110;2024-02-21T15:21:00;9.00;99.90
15133;DHT22;7667;51.232;17.110;2024-02-21T15:23:28;8.90;99.90
15133;DHT22;7667;51.232;17.110;2024-02-21T15:25:56;8.90;99.90
15133;DHT22;7667;51.232;17.110;2024-02-21T15:28:24;8.90;99.90
15133;DHT22;7667;51.232;17.110;2024-02-21T15:30:51;8.80;99.90
15133;DHT22;7667;51.232;17.110;2024-02-21T15:33:19;8.80;99.90
15133;DHT22;7667;51.232;17.110;2024-02-21T15:35:47;8.80;99.90
15133;DHT22;7667;51.232;17.110;2024-02-21T15:38:15;8.70;99.90
15133;DHT22;7667;51.232;17.110;2024-02-21T15:40:43;8.70;99.90
15133;DHT22;7667;51.232;17.110;2024-02-21T15:43:10;8.70;99.90
15133;DHT22;7667;51.232;17.110;2024-02-21T15:45:38;8.70;99.90
15133;DHT22;7667;51.232;17.110;2024-02-21T15:48:09;8.60;99.90
15133;DHT22;7667;51.232;17.110;2024-02-21T15:50:36;8.60;99.90
15133;DHT22;7667;51.232;17.110;2024-02-21T15:53:04;8.50;99.90
15133;DHT22;7667;51.232;17.110;2024-02-21T15:55:32;8.50;99.90
15133;DHT22;7667;51.232;17.110;2024-02-21T15:57:59;8.40;99.90
15133;DHT22;7667;51.232;17.110;2024-02-21T16:00:27;8.30;99.90
15133;DHT22;7667;51.232;17.110;2024-02-21T16:02:55;8.30;99.90
15133;DHT22;7667;51.232;17.110;2024-02-21T16:05:24;8.30;99.90
15133;DHT22;7667;51.232;17.110;2024-02-21T16:07:51;8.30;99.90
15133;DHT22;7667;51.232;17.110;2024-02-21T16:10:19;8.30;99.90
15133;DHT22;7667;51.232;17.110;2024-02-21T16:12:47;8.20;99.90
15133;DHT22;7667;51.232;17.110;2024-02-21T16:15:18;8.10;99.90
15133;DHT22;7667;51.232;17.110;2024-02-21T16:17:45;8.10;99.90
15133;DHT22;7667;51.232;17.110;2024-02-21T16:20:14;8.00;99.90
15133;DHT22;7667;51.232;17.110;2024-02-21T16:22:43;7.90;99.90
15133;DHT22;7667;51.232;17.110;2024-02-21T16:25:13;7.80;99.90
15133;DHT22;7667;51.232;17.110;2024-02-21T16:27:40;7.70;99.90
15133;DHT22;7667;51.232;17.110;2024-02-21T16:30:09;7.60;99.90
15133;DHT22;7667;51.232;17.110;2024-02-21T16:32:36;7.50;99.90
15133;DHT22;7667;51.232;17.110;2024-02-21T16:35:06;7.50;99.90
15133;DHT22;7667;51.232;17.110;2024-02-21T16:37:35;7.50;99.90
15133;DHT22;7667;51.232;17.110;2024-02-21T16:40:03;7.50;99.90
15133;DHT22;7667;51.232;17.110;2024-02-21T16:42:31;7.60;99.90
15133;DHT22;7667;51.232;17.110;2024-02-21T16:44:59;7.70;99.90
15133;DHT22;7667;51.232;17.110;2024-02-21T16:47:27;7.60;99.90
15133;DHT22;7667;51.232;17.110;2024-02-21T16:49:55;7.70;99.90
15133;DHT22;7667;51.232;17.110;2024-02-21T16:52:25;7.70;99.90
15133;DHT22;7667;51.232;17.110;2024-02-21T16:54:53;7.60;99.90
15133;DHT22;7667;51.232;17.110;2024-02-21T16:57:21;7.50;99.90
15133;DHT22;7667;51.232;17.110;2024-02-21T16:59:49;7.30;99.90
15133;DHT22;7667;51.232;17.110;2024-02-21T17:02:16;7.20;99.90
15133;DHT22;7667;51.232;17.110;2024-02-21T17:04:44;7.10;99.90
15133;DHT22;7667;51.232;17.110;2024-02-21T17:07:12;7.00;99.90
15133;DHT22;7667;51.232;17.110;2024-02-21T17:09:39;7.00;99.90
15133;DHT22;7667;51.232;17.110;2024-02-21T17:12:07;6.80;99.90
15133;DHT22;7667;51.232;17.110;2024-02-21T17:14:35;6.70;99.90
15133;DHT22;7667;51.232;17.110;2024-02-21T17:17:03;6.60;99.90
15133;DHT22;7667;51.232;17.110;2024-02-21T17:19:31;6.50;99.90
15133;DHT22;7667;51.232;17.110;2024-02-21T17:21:59;6.50;99.90
15133;DHT22;7667;51.232;17.110;2024-02-21T17:24:26;6.50;99.90
15133;DHT22;7667;51.232;17.110;2024-02-21T17:26:54;6.40;99.90
15133;DHT22;7667;51.232;17.110;2024-02-21T17:29:21;6.20;99.90
15133;DHT22;7667;51.232;17.110;2024-02-21T17:31:50;6.10;99.90
15133;DHT22;7667;51.232;17.110;2024-02-21T17:34:18;6.00;99.90
15133;DHT22;7667;51.232;17.110;2024-02-21T17:36:48;6.00;99.90
15133;DHT22;7667;51.232;17.110;2024-02-21T17:39:15;6.00;99.90
15133;DHT22;7667;51.232;17.110;2024-02-21T17:41:45;6.00;99.90
15133;DHT22;7667;51.232;17.110;2024-02-21T17:44:13;6.10;99.90
15133;DHT22;7667;51.232;17.110;2024-02-21T17:46:41;6.20;99.90
15133;DHT22;7667;51.232;17.110;2024-02-21T17:49:13;6.20;99.90
15133;DHT22;7667;51.232;17.110;2024-02-21T17:51:43;6.30;99.90
15133;DHT22;7667;51.232;17.110;2024-02-21T17:54:11;6.20;99.90
15133;DHT22;7667;51.232;17.110;2024-02-21T17:56:41;6.10;99.90